• Join FlightAware (Why Join?)
  • Login
  • US Flag 
01:53AM EDT


 

Airport Tracker/Info


-or-


 

Live Flight TrackerFlight Track Log ✈ DAL1781 ✈ 03-Jul-2014 ✈ KMSP - KATL

Flight Track Log - Related Links

Times and Time Zones

All times are in EDT time to prevent confusion due to time zone crossing. See the DAL1781 flight status page for this flight to view local times or setup timezone preferences in your user account.

Time Position Orientation Groundspeed Altitude Reporting Facility
EDT Latitude Longitude Course Direction KTS MPH feet Rate Location/Type
04:32PM 44.8872 -93.2883 120° Southeast 178 205 3,000  Level Minneapolis Center
04:34PM 44.8014 -93.4075 225° Southwest 283 326 9,200 2,400 Climbing Minneapolis Center
04:36PM 44.6850 -93.1633 145° Southeast 393 452 13,100 2,040 Climbing Minneapolis Center
04:38PM 44.5544 -92.8900 145° Southeast 432 497 17,800 2,040 Climbing Minneapolis Center
04:39PM 44.4844 -92.7447 124° Southeast 444 511 19,500 1,740 Climbing Minneapolis Center
04:40PM 44.4122 -92.5936 124° Southeast 462 532 21,500 1,980 Climbing Minneapolis Center
04:41PM 44.3219 -92.4056 124° Southeast 482 555 23,600 1,740 Climbing Minneapolis Center
04:42PM 44.2511 -92.2400 121° Southeast 494 568 25,100 1,380 Climbing Minneapolis Center
04:44PM 44.1281 -91.9658 125° Southeast 526 605 27,300 1,320 Climbing Chicago Center
04:45PM 44.0525 -91.7919 121° Southeast 526 605 28,700 1,380 Climbing Chicago Center
04:47PM 43.9453 -91.5392 120° Southeast 530 610 30,800 1,500 Climbing Minneapolis Center
04:48PM 43.8297 -91.3481 130° Southeast 540 621 32,500 1,560 Climbing Minneapolis Center
04:49PM 43.7242 -91.2025 135° Southeast 541 623 34,100 1,380 Climbing Minneapolis Center
04:50PM 43.6208 -91.0586 135° Southeast 537 618 35,400 780 Climbing Minneapolis Center
04:52PM 43.3089 -90.7611 135° Southeast 538 619 37,000 420 Climbing Chicago Center
04:53PM 43.1681 -90.7156 167° South 528 608 37,000  Level Chicago Center
04:55PM 42.8572 -90.5872 163° South 533 613 37,000 420 Level Chicago Center
04:58PM 42.5997 -90.4667 161° South 521 600 38,900 600 Climbing Kansas City Center
04:59PM 42.4714 -90.4086 162° South 500 575 39,000  Climbing Kansas City Center
05:00PM 42.3278 -90.3456 162° South 501 577 39,000  Level Chicago Center
05:02PM 42.0453 -90.2214 162° South 502 578 39,000  Level Kansas City Center
05:03PM 41.9022 -90.1556 161° South 506 582 39,000  Level Chicago Center
05:04PM 41.7539 -90.0892 162° South 501 577 39,000  Level Chicago Center
05:05PM 41.6236 -90.0333 162° South 493 567 39,000  Level Chicago Center
05:06PM 41.4947 -89.9767 162° South 488 562 39,000  Level Chicago Center
05:07PM 41.3678 -89.9208 162° South 486 559 39,000  Level Chicago Center
05:09PM 41.1108 -89.8089 162° South 486 559 39,000  Level Kansas City Center
05:10PM 40.9667 -89.7461 162° South 483 556 39,000  Level Chicago Center
05:11PM 40.8414 -89.6922 162° South 480 552 39,000  Level Chicago Center
05:13PM 40.5656 -89.5733 162° South 478 550 39,000  Level Chicago Center
05:14PM 40.4447 -89.5231 162° South 478 550 39,000  Level Chicago Center
05:15PM 40.3175 -89.4692 162° South 478 550 39,000  Level Chicago Center
05:17PM 40.0594 -89.3600 162° South 484 557 39,000  Level Chicago Center
05:18PM 39.9319 -89.3067 162° South 483 556 39,000  Level Kansas City Center
05:20PM 39.6558 -89.1961 163° South 476 548 39,000  Level Chicago Center
05:21PM 39.5331 -89.1422 161° South 470 541 39,000  Level Kansas City Center
05:22PM 39.4086 -89.0919 163° South 470 541 39,000  Level Kansas City Center
05:23PM 39.2969 -89.0467 163° South 469 540 39,000  Level Kansas City Center
05:24PM 39.1481 -88.9856 162° South 469 540 39,000  Level Kansas City Center
05:25PM 39.0261 -88.9361 163° South 464 534 39,000  Level Kansas City Center
05:28PM 38.7761 -88.8356 163° South 468 539 39,000  Level Kansas City Center
05:29PM 38.6528 -88.7847 162° South 468 539 39,000  Level Kansas City Center
05:30PM 38.5056 -88.7283 163° South 468 539 39,000  Level Kansas City Center
05:31PM 38.3122 -88.6517 163° South 465 535 39,000  Level Memphis Center
05:32PM 38.1669 -88.5933 162° South 459 528 39,000  Level Memphis Center
05:33PM 38.0456 -88.5458 163° South 458 527 39,000  Level Memphis Center
05:34PM 37.9233 -88.4972 163° South 458 527 39,000  Level Memphis Center
05:35PM 37.8003 -88.4508 163° South 458 527 39,000  Level Memphis Center
05:37PM 37.6489 -88.3908 163° South 458 527 39,000  Level Kansas City Center
05:38PM 37.5083 -88.3353 163° South 447 514 39,000  Level Kansas City Center
05:39PM 37.4444 -88.3103 163° South 443 510 39,000  Level Memphis Center
05:40PM 37.3028 -88.2469 160° South 446 513 39,000  Level Memphis Center
05:42PM 37.1275 -88.0131 133° Southeast 473 544 39,000  Level Memphis Center
05:43PM 37.0372 -87.8892 132° Southeast 473 544 39,000  Level Memphis Center
05:44PM 36.9311 -87.7469 133° Southeast 474 545 39,000  Level Memphis Center
05:45PM 36.8419 -87.6244 132° Southeast 474 545 39,000  Level Memphis Center
05:46PM 36.7517 -87.5031 133° Southeast 474 545 39,000  Level Memphis Center
05:47PM 36.6625 -87.3825 133° Southeast 474 545 39,000  Level Memphis Center
05:48PM 36.5733 -87.2631 133° Southeast 470 541 39,000 -600 Level Memphis Center
05:51PM 36.2908 -86.8886 147° Southeast 469 540 36,600 -960 Descending Memphis Center
05:52PM 36.2011 -86.7717 134° Southeast 471 542 35,100 -1,200 Descending Memphis Center
05:54PM 35.9931 -86.5675 142° Southeast 476 548 33,000 -540 Descending Memphis Center
05:56PM 35.8534 -86.4362 143° Southeast  Level Estimated
05:56PM 35.7494 -86.3714 143° Southeast 477 549 33,000  Level Memphis Center
05:57PM 35.8027 -86.4213 147° Southeast  Level FlightAware Approximate
05:58PM 35.5181 -86.1819 146° Southeast 478 550 33,000  Level Atlanta Center
05:59PM 35.4175 -86.1042 148° Southeast 476 548 33,000 -180 Level Memphis Center
06:00PM 35.3081 -86.0161 148° Southeast 475 547 32,700 -660 Descending Memphis Center
06:01PM 35.2840 -86.0016 148° Southeast  Level FlightAware Approximate
06:01PM 35.1950 -85.9469 153° Southeast 467 537 31,700  Level Memphis Center
06:02PM 35.0478 -85.9425 179° South 445 512 30,700 -900 Descending Memphis Center
06:03PM 34.9281 -85.9267 174° South 441 507 29,900 -780 Descending Memphis Center
06:05PM 34.7100 -85.8278 160° South 431 496 28,500 -1,140 Descending Atlanta Center
06:07PM 34.4922 -85.7400 162° South 441 507 25,500 -1,380 Descending Atlanta Center
06:08PM 34.4058 -85.6450 138° Southeast 416 479 24,500 -1,680 Descending Atlanta Center
06:10PM 34.2794 -85.3964 118° Southeast 403 464 20,500 -1,980 Descending Atlanta Center
06:12PM 34.1647 -85.1711 129° Southeast 393 452 16,700 -1,920 Descending Atlanta Center
06:13PM 34.1094 -85.0650 122° Southeast 393 452 14,800 -1,500 Descending Atlanta Center
06:14PM 34.0453 -84.9664 128° Southeast 387 445 13,800 -1,260 Descending Atlanta Center
06:15PM 33.9750 -84.8781 134° Southeast 376 433 12,300 -900 Descending Atlanta Center
06:16PM 33.9047 -84.7922 135° Southeast 366 421 12,000 -180 Descending Atlanta Center
06:17PM 33.8333 -84.7167 139° Southeast 364 419 12,000  Level Atlanta TRACON
06:18PM 33.7667 -84.6333 134° Southeast 319 367 12,000 -120 Level Atlanta TRACON
06:19PM 33.7333 -84.5500 116° Southeast 274 315 11,800 -900 Descending Atlanta TRACON
06:20PM 33.7333 -84.4667 90° East 285 328 10,200 -1,560 Descending Atlanta TRACON
06:22PM 33.7314 -84.2911 91° East 263 303 7,100 -1,380 Descending Atlanta Center
06:23PM 33.7333 -84.2000 89° East 255 293 6,100 -1,260 Descending Atlanta TRACON
06:24PM 33.6667 -84.1833 168° South 216 249 4,700 -1,140 Descending Atlanta TRACON
06:26PM 33.6500 -84.3000 265° West 166 191 2,800 -900 Descending Atlanta TRACON
06:27PM 33.6500 -84.3500 270° West 130 150 2,100 -720 Descending Atlanta TRACON
06:29PM 33.6367 -84.4279 253° West  Level Estimated
06:36PM 33.6367 -84.4279 265° West  Level Estimated
06:37PM 33.6367 -84.4279 86° East  Level Estimated